Rothsay, Minnesota
Current Conditions -  °F | °C
As of 10:34 AM on Monday 24 Nov 2014 (Local Time) from KFFM Reporting Station
Haze Haze  
Wind Chill: -13°   Ceiling: 2200
Heat Index:   Visibility: 2.5mi
Dew Point:   Wind: 26mph
Humidity: 79%   Direction: 330°NNW
Pressure: 29.69"   Gusts: 32mph
Location:  46.47°N, 96.29°W
Report Text: KFFM 241634Z AUTO 33023G28KT 2 1/2SM HZ SCT010 SCT015 OVC022 M13/M16 A2969 RMK AO2
Loading
Personal Weather Stations






























Interactive Weather Map New forecast layout! Learn more

10-Day Weather Forecast

Advertisements
Track Severe Weather on mobile